Atlantic Innovator — 3EST6 — position and weather

sailwx.info

Track history (hours):
 
Tides and Currents Weather Stations Pressure Air Temp Water Temp Dewpoint Dewpoint Depression Visibility Wind Speed Wind Dir Waves Ship Positions

Atlantic Innovator

Last reported at 2018-Jun-01 18:30 UTC. Time now 2018-Jun-24 15:09 UTC.
Position N 09°11' W 079°52'.
Warning: this ship's position is 22 days out of date.

Length 182 m; draft 7.2 m.

Type: Tanker. MMSI: 370418000.

Date/timePositionNaut miles runAvg speedWind from/ knotsBaromVisibWave heightAir tempDewpointWater temp
2018-Jun-01 18:30N 09°11' W 079°52'5 1.0
2018-Jun-01 13:52N 09°13' W 079°56'0 0.0
2018-Jun-01 11:01N 09°13' W 079°56'0 0.1
2018-Jun-01 10:58N 09°13' W 079°56'0 0.0
2018-Jun-01 09:52N 09°13' W 079°56'0 0.0
2018-Jun-01 09:22N 09°13' W 079°56'0 0.0
2018-Jun-01 08:58N 09°13' W 079°56'0 0.1
2018-Jun-01 06:05N 09°13' W 079°56'3 3.9
2018-Jun-01 05:19N 09°16' W 079°55'0 0.5
2018-Jun-01 04:42N 09°16' W 079°55'0 0.1
2018-Jun-01 04:29N 09°16' W 079°55'0 0.5
2018-Jun-01 04:00N 09°17' W 079°55'0 0.0
2018-Jun-01 03:30N 09°17' W 079°55'0 1.0
2018-Jun-01 03:00N 09°17' W 079°55'1 2.0
2018-Jun-01 02:30N 09°18' W 079°55'3 5.1
2018-Jun-01 02:00N 09°21' W 079°55'2 4.4
2018-Jun-01 01:30N 09°23' W 079°56'0 0.2
2018-Jun-01 00:58N 09°23' W 079°56'0 0.0
2018-Jun-01 00:28N 09°23' W 079°56'0 0.0
2018-May-31 23:58N 09°23' W 079°56'0 0.0
2018-May-31 23:28N 09°23' W 079°56'0 0.0
2018-May-31 22:58N 09°23' W 079°56'0 0.0
2018-May-31 22:28N 09°23' W 079°56'0 0.0
2018-May-31 21:58N 09°23' W 079°56'0 0.0
2018-May-31 21:28N 09°23' W 079°56'0 0.0
2018-May-31 20:58N 09°23' W 079°56'0 0.0
2018-May-31 20:28N 09°23' W 079°56'0 0.0
2018-May-31 19:58N 09°23' W 079°56'0 0.0
2018-May-31 19:28N 09°23' W 079°56'0 0.0
2018-May-31 18:58N 09°23' W 079°56'0 0.0
2018-May-31 18:28N 09°23' W 079°56'0 0.1
2018-May-31 17:58N 09°23' W 079°56'0 0.0
2018-May-31 17:28N 09°23' W 079°56'0 0.0
2018-May-31 16:58N 09°23' W 079°56'0 0.1
2018-May-31 16:28N 09°23' W 079°56'0 0.1
2018-May-31 15:58N 09°23' W 079°56'0 0.1
2018-May-31 15:28N 09°23' W 079°56'0 0.1
2018-May-31 14:58N 09°23' W 079°56'0 0.1
2018-May-31 14:28N 09°23' W 079°56'0 0.1
2018-May-31 13:58N 09°23' W 079°56'0 0.0
2018-May-31 13:28N 09°23' W 079°56'0 0.0
2018-May-31 12:58N 09°23' W 079°56'0 0.0
2018-May-31 12:28N 09°23' W 079°56'0 0.0
2018-May-31 11:58N 09°23' W 079°56'0 0.0
2018-May-31 11:28N 09°23' W 079°56'0 0.0
2018-May-31 10:58N 09°23' W 079°56'0 0.0
2018-May-31 10:28N 09°23' W 079°56'0 0.0
2018-May-31 09:58N 09°23' W 079°56'0 0.0
2018-May-31 09:28N 09°23' W 079°56'0 0.0
2018-May-31 08:58N 09°23' W 079°56'0 0.0
2018-May-31 08:28N 09°23' W 079°56'0 0.0
2018-May-31 07:58N 09°23' W 079°56'0 0.1
2018-May-31 07:28N 09°23' W 079°56'0 0.1
2018-May-31 06:58N 09°23' W 079°56'0 0.0
2018-May-31 06:28N 09°23' W 079°56'0 0.0
2018-May-31 05:58N 09°23' W 079°56'0 0.0
2018-May-31 05:28N 09°23' W 079°56'0 0.0
2018-May-31 04:58N 09°23' W 079°56'0 0.0
2018-May-31 04:28N 09°23' W 079°56'0 0.0
2018-May-31 03:58N 09°23' W 079°56'0 0.0
2018-May-31 03:28N 09°23' W 079°56'0 0.1
2018-May-31 02:58N 09°23' W 079°56'0 0.0
2018-May-31 02:28N 09°23' W 079°56'0 0.0
2018-May-31 01:58N 09°23' W 079°56'0 0.1
2018-May-31 01:28N 09°23' W 079°56'0 0.1
2018-May-31 00:58N 09°23' W 079°56'0 0.0
2018-May-31 00:28N 09°23' W 079°56'0 0.0
2018-May-30 23:58N 09°23' W 079°56'0 0.0
2018-May-30 23:28N 09°23' W 079°56'0 0.0
2018-May-30 22:58N 09°23' W 079°56'0 0.0
2018-May-30 22:28N 09°23' W 079°56'0 0.0
2018-May-30 21:58N 09°23' W 079°56'0 0.0
2018-May-30 21:28N 09°23' W 079°56'0 0.0
2018-May-30 20:58N 09°23' W 079°56'0 0.1
2018-May-30 20:28N 09°23' W 079°56'0 0.1
2018-May-30 19:58N 09°23' W 079°56'0 0.1
2018-May-30 19:28N 09°23' W 079°56'0 0.1
2018-May-30 18:58N 09°23' W 079°55'0 0.2
2018-May-30 18:28N 09°23' W 079°55'0 0.1
2018-May-30 17:58N 09°23' W 079°55'0 0.2
2018-May-30 17:31N 09°23' W 079°55'1 1.8
2018-May-30 17:00N 09°24' W 079°55'3 5.2
2018-May-30 16:30N 09°26' W 079°57'2 3.3
2018-May-30 15:58N 09°25' W 079°58'0 0.0
2018-May-30 15:25N 09°25' W 079°58'0 0.0
2018-May-30 14:55N 09°25' W 079°58'0 0.0
2018-May-30 14:28N 09°25' W 079°58'0 0.0
2018-May-30 13:52N 09°25' W 079°58'0 0.0
2018-May-30 13:28N 09°25' W 079°58'0 0.0
2018-May-30 12:55N 09°25' W 079°58'0 0.0
2018-May-30 12:28N 09°25' W 079°58'0 0.0
2018-May-30 11:58N 09°25' W 079°58'0 0.0
2018-May-30 11:28N 09°25' W 079°58'0 0.0
2018-May-30 10:55N 09°25' W 079°58'0 0.0
2018-May-30 10:19N 09°25' W 079°58'0 0.0
2018-May-30 09:58N 09°25' W 079°58'0 0.0
2018-May-30 09:25N 09°25' W 079°58'0 0.0
2018-May-30 08:58N 09°25' W 079°58'0 0.0
2018-May-30 08:25N 09°25' W 079°58'0 0.1
2018-May-30 07:58N 09°25' W 079°58'0 0.4
2018-May-30 07:30N 09°25' W 079°58'2 4.0
2018-May-30 07:00N 09°26' W 079°59'4 8.5
2018-May-30 06:31N 09°30' W 079°56'611.7
2018-May-30 06:00N 09°35' W 079°53'  
2018-May-25 23:03N 28°50' W 093°57'115.6
2018-May-25 22:58N 28°51' W 093°58'3712.2
2018-May-25 19:54N 29°13' W 094°32'511.9
2018-May-25 19:30N 29°17' W 094°36'610.8
2018-May-25 18:57N 29°20' W 094°41'510.6
2018-May-25 18:30N 29°21' W 094°47'510.3
2018-May-25 18:00N 29°25' W 094°50'510.6
2018-May-25 17:30N 29°30' W 094°52'510.4
2018-May-25 17:00N 29°34' W 094°55'5 9.1
2018-May-25 16:30N 29°38' W 094°58'4 8.5
2018-May-25 16:00N 29°42' W 095°00'3 6.5
2018-May-25 15:30N 29°44' W 095°03'3 4.7
2018-May-25 14:51N 29°44' W 095°07'1 0.0
2018-May-23 15:06N 29°44' W 095°07'0 2.1
2018-May-23 15:01N 29°44' W 095°07'3 5.9
2018-May-23 14:31N 29°46' W 095°04'4 7.5
2018-May-23 14:00N 29°43' W 095°01'5 9.4
2018-May-23 13:30N 29°39' W 094°58'510.3
2018-May-23 13:00N 29°34' W 094°56'612.3
2018-May-23 12:30N 29°29' W 094°52'612.5
2018-May-23 12:00N 29°23' W 094°49'611.7
2018-May-23 11:31N 29°21' W 094°43'712.9
2018-May-23 11:00N 29°18' W 094°36'4 8.5
2018-May-23 10:30N 29°16' W 094°31'3 3.6
2018-May-23 09:47N 29°19' W 094°30'0 0.0
2018-May-23 06:14N 29°19' W 094°30'0 0.0
2018-May-23 03:53N 29°19' W 094°30'0 0.0
2018-May-23 03:20N 29°19' W 094°30'0 0.0
2018-May-23 02:53N 29°19' W 094°30'0 0.0
2018-May-23 01:38N 29°19' W 094°30'0 0.0
2018-May-23 01:26N 29°19' W 094°30'0 0.0
2018-May-23 00:50N 29°19' W 094°30'0 0.0
2018-May-23 00:29N 29°19' W 094°30'0 0.0
2018-May-22 23:50N 29°19' W 094°30'0 0.1
2018-May-22 23:07N 29°19' W 094°30'0 1.6
2018-May-22 23:00N 29°19' W 094°30'2 3.5
2018-May-22 22:30N 29°17' W 094°32'4 8.0
2018-May-22 22:00N 29°14' W 094°29'711.9
2018-May-22 21:25N 29°10' W 094°23'613.6
2018-May-22 21:00N 29°07' W 094°17'814.5
2018-May-22 20:28N 29°02' W 094°10'  
Track history (hours):
 
Tides and Currents Weather Stations Pressure Air Temp Water Temp Dewpoint Dewpoint Depression Visibility Wind Speed Wind Dir Waves Ship Positions

Atlantic Innovator

Last reported at 2018-Jun-01 18:30 UTC. Time now 2018-Jun-24 15:09 UTC.
Position N 09°11' W 079°52'.
Warning: this ship's position is 22 days out of date.

Length 182 m; draft 7.2 m.

Type: Tanker. MMSI: 370418000.

Date/timePositionNaut miles runAvg speedWind from/ knotsBaromVisibWave heightAir tempDewpointWater temp
2018-Jun-01 18:30N 09°11' W 079°52'5 1.0
2018-Jun-01 13:52N 09°13' W 079°56'0 0.0
2018-Jun-01 11:01N 09°13' W 079°56'0 0.1
2018-Jun-01 10:58N 09°13' W 079°56'0 0.0
2018-Jun-01 09:52N 09°13' W 079°56'0 0.0
2018-Jun-01 09:22N 09°13' W 079°56'0 0.0
2018-Jun-01 08:58N 09°13' W 079°56'0 0.1
2018-Jun-01 06:05N 09°13' W 079°56'3 3.9
2018-Jun-01 05:19N 09°16' W 079°55'0 0.5
2018-Jun-01 04:42N 09°16' W 079°55'0 0.1
2018-Jun-01 04:29N 09°16' W 079°55'0 0.5
2018-Jun-01 04:00N 09°17' W 079°55'0 0.0
2018-Jun-01 03:30N 09°17' W 079°55'0 1.0
2018-Jun-01 03:00N 09°17' W 079°55'1 2.0
2018-Jun-01 02:30N 09°18' W 079°55'3 5.1
2018-Jun-01 02:00N 09°21' W 079°55'2 4.4
2018-Jun-01 01:30N 09°23' W 079°56'0 0.2
2018-Jun-01 00:58N 09°23' W 079°56'0 0.0
2018-Jun-01 00:28N 09°23' W 079°56'0 0.0
2018-May-31 23:58N 09°23' W 079°56'0 0.0
2018-May-31 23:28N 09°23' W 079°56'0 0.0
2018-May-31 22:58N 09°23' W 079°56'0 0.0
2018-May-31 22:28N 09°23' W 079°56'0 0.0
2018-May-31 21:58N 09°23' W 079°56'0 0.0
2018-May-31 21:28N 09°23' W 079°56'0 0.0
2018-May-31 20:58N 09°23' W 079°56'0 0.0
2018-May-31 20:28N 09°23' W 079°56'0 0.0
2018-May-31 19:58N 09°23' W 079°56'0 0.0
2018-May-31 19:28N 09°23' W 079°56'0 0.0
2018-May-31 18:58N 09°23' W 079°56'0 0.0
2018-May-31 18:28N 09°23' W 079°56'0 0.1
2018-May-31 17:58N 09°23' W 079°56'0 0.0
2018-May-31 17:28N 09°23' W 079°56'0 0.0
2018-May-31 16:58N 09°23' W 079°56'0 0.1
2018-May-31 16:28N 09°23' W 079°56'0 0.1
2018-May-31 15:58N 09°23' W 079°56'0 0.1
2018-May-31 15:28N 09°23' W 079°56'0 0.1
2018-May-31 14:58N 09°23' W 079°56'0 0.1
2018-May-31 14:28N 09°23' W 079°56'0 0.1
2018-May-31 13:58N 09°23' W 079°56'0 0.0
2018-May-31 13:28N 09°23' W 079°56'0 0.0
2018-May-31 12:58N 09°23' W 079°56'0 0.0
2018-May-31 12:28N 09°23' W 079°56'0 0.0
2018-May-31 11:58N 09°23' W 079°56'0 0.0
2018-May-31 11:28N 09°23' W 079°56'0 0.0
2018-May-31 10:58N 09°23' W 079°56'0 0.0
2018-May-31 10:28N 09°23' W 079°56'0 0.0
2018-May-31 09:58N 09°23' W 079°56'0 0.0
2018-May-31 09:28N 09°23' W 079°56'0 0.0
2018-May-31 08:58N 09°23' W 079°56'0 0.0
2018-May-31 08:28N 09°23' W 079°56'0 0.0
2018-May-31 07:58N 09°23' W 079°56'0 0.1
2018-May-31 07:28N 09°23' W 079°56'0 0.1
2018-May-31 06:58N 09°23' W 079°56'0 0.0
2018-May-31 06:28N 09°23' W 079°56'0 0.0
2018-May-31 05:58N 09°23' W 079°56'0 0.0
2018-May-31 05:28N 09°23' W 079°56'0 0.0
2018-May-31 04:58N 09°23' W 079°56'0 0.0
2018-May-31 04:28N 09°23' W 079°56'0 0.0
2018-May-31 03:58N 09°23' W 079°56'0 0.0
2018-May-31 03:28N 09°23' W 079°56'0 0.1
2018-May-31 02:58N 09°23' W 079°56'0 0.0
2018-May-31 02:28N 09°23' W 079°56'0 0.0
2018-May-31 01:58N 09°23' W 079°56'0 0.1
2018-May-31 01:28N 09°23' W 079°56'0 0.1
2018-May-31 00:58N 09°23' W 079°56'0 0.0
2018-May-31 00:28N 09°23' W 079°56'0 0.0
2018-May-30 23:58N 09°23' W 079°56'0 0.0
2018-May-30 23:28N 09°23' W 079°56'0 0.0
2018-May-30 22:58N 09°23' W 079°56'0 0.0
2018-May-30 22:28N 09°23' W 079°56'0 0.0
2018-May-30 21:58N 09°23' W 079°56'0 0.0
2018-May-30 21:28N 09°23' W 079°56'0 0.0
2018-May-30 20:58N 09°23' W 079°56'0 0.1
2018-May-30 20:28N 09°23' W 079°56'0 0.1
2018-May-30 19:58N 09°23' W 079°56'0 0.1
2018-May-30 19:28N 09°23' W 079°56'0 0.1
2018-May-30 18:58N 09°23' W 079°55'0 0.2
2018-May-30 18:28N 09°23' W 079°55'0 0.1
2018-May-30 17:58N 09°23' W 079°55'0 0.2
2018-May-30 17:31N 09°23' W 079°55'1 1.8
2018-May-30 17:00N 09°24' W 079°55'3 5.2
2018-May-30 16:30N 09°26' W 079°57'2 3.3
2018-May-30 15:58N 09°25' W 079°58'0 0.0
2018-May-30 15:25N 09°25' W 079°58'0 0.0
2018-May-30 14:55N 09°25' W 079°58'0 0.0
2018-May-30 14:28N 09°25' W 079°58'0 0.0
2018-May-30 13:52N 09°25' W 079°58'0 0.0
2018-May-30 13:28N 09°25' W 079°58'0 0.0
2018-May-30 12:55N 09°25' W 079°58'0 0.0
2018-May-30 12:28N 09°25' W 079°58'0 0.0
2018-May-30 11:58N 09°25' W 079°58'0 0.0
2018-May-30 11:28N 09°25' W 079°58'0 0.0
2018-May-30 10:55N 09°25' W 079°58'0 0.0
2018-May-30 10:19N 09°25' W 079°58'0 0.0
2018-May-30 09:58N 09°25' W 079°58'0 0.0
2018-May-30 09:25N 09°25' W 079°58'0 0.0
2018-May-30 08:58N 09°25' W 079°58'0 0.0
2018-May-30 08:25N 09°25' W 079°58'0 0.1
2018-May-30 07:58N 09°25' W 079°58'0 0.4
2018-May-30 07:30N 09°25' W 079°58'2 4.0
2018-May-30 07:00N 09°26' W 079°59'4 8.5
2018-May-30 06:31N 09°30' W 079°56'611.7
2018-May-30 06:00N 09°35' W 079°53'  
2018-May-25 23:03N 28°50' W 093°57'115.6
2018-May-25 22:58N 28°51' W 093°58'3712.2
2018-May-25 19:54N 29°13' W 094°32'511.9
2018-May-25 19:30N 29°17' W 094°36'610.8
2018-May-25 18:57N 29°20' W 094°41'510.6
2018-May-25 18:30N 29°21' W 094°47'510.3
2018-May-25 18:00N 29°25' W 094°50'510.6
2018-May-25 17:30N 29°30' W 094°52'510.4
2018-May-25 17:00N 29°34' W 094°55'5 9.1
2018-May-25 16:30N 29°38' W 094°58'4 8.5
2018-May-25 16:00N 29°42' W 095°00'3 6.5
2018-May-25 15:30N 29°44' W 095°03'3 4.7
2018-May-25 14:51N 29°44' W 095°07'1 0.0
2018-May-23 15:06N 29°44' W 095°07'0 2.1
2018-May-23 15:01N 29°44' W 095°07'3 5.9
2018-May-23 14:31N 29°46' W 095°04'4 7.5
2018-May-23 14:00N 29°43' W 095°01'5 9.4
2018-May-23 13:30N 29°39' W 094°58'510.3
2018-May-23 13:00N 29°34' W 094°56'612.3
2018-May-23 12:30N 29°29' W 094°52'612.5
2018-May-23 12:00N 29°23' W 094°49'611.7
2018-May-23 11:31N 29°21' W 094°43'712.9
2018-May-23 11:00N 29°18' W 094°36'4 8.5
2018-May-23 10:30N 29°16' W 094°31'3 3.6
2018-May-23 09:47N 29°19' W 094°30'0 0.0
2018-May-23 06:14N 29°19' W 094°30'0 0.0
2018-May-23 03:53N 29°19' W 094°30'0 0.0
2018-May-23 03:20N 29°19' W 094°30'0 0.0
2018-May-23 02:53N 29°19' W 094°30'0 0.0
2018-May-23 01:38N 29°19' W 094°30'0 0.0
2018-May-23 01:26N 29°19' W 094°30'0 0.0
2018-May-23 00:50N 29°19' W 094°30'0 0.0
2018-May-23 00:29N 29°19' W 094°30'0 0.0
2018-May-22 23:50N 29°19' W 094°30'0 0.1
2018-May-22 23:07N 29°19' W 094°30'0 1.6
2018-May-22 23:00N 29°19' W 094°30'2 3.5
2018-May-22 22:30N 29°17' W 094°32'4 8.0
2018-May-22 22:00N 29°14' W 094°29'711.9
2018-May-22 21:25N 29°10' W 094°23'613.6
2018-May-22 21:00N 29°07' W 094°17'814.5
2018-May-22 20:28N 29°02' W 094°10'  

Dump ship's entire track history